Littlerock, CA (93543)

11:32 AM PDT on August 04, 2015 (GMT -0700)
ARS W6SRT Weather | | Change Station
CLOSE
Current Station
Personal Weather Station
Location: Littlerock, CA
Elevation: 2853 ft
Nearby Weather Stations

Elev 2853 ft 34.53 °N, 117.96 °W | Updated 0 second ago

Clear
Clear
93.2 °F
Feels Like 89 °F
N
6.9
Wind Variable Wind from WSW
Gusts 15.0 mph

Today
High -- | Low -- °F
--% Chance of Precip.
Yesterday
High -- | Low -- °F
Precip. -- in
6:04 AM 7:51 PM
Waning Gibbous, 75% visible
Pressure 29.89 in
Visibility 10.0 miles
Clouds Clear
Heat Index 89 °F
Dew Point 35 °F
Humidity 13%
Rainfall 0.00 in
Snow Depth Not available.
UV 9 out of 12
Pollen 4.00 out of 12
Air Quality Not available.
Flu Activity Not available.
METAR KWJF 041756Z 24014G21KT 10SM CLR 34/04 A2997 RMK AO2 SLP122 T03440039 10344 20194 53000

More Conditions Fewer Conditions

Pressure 29.89 in
Visibility 10.0 miles
Clouds Clear
Heat Index 89 °F
Dew Point 35 °F
Humidity 13%
Rainfall 0.00 in
Snow Depth Not available.
UV 9 out of 12
Pollen 4.00 out of 12
Air Quality Not available.
Flu Activity Not available.
METAR KWJF 041756Z 24014G21KT 10SM CLR 34/04 A2997 RMK AO2 SLP122 T03440039 10344 20194 53000

More Conditions Fewer Conditions

10-Day Weather Forecast

×

Almanac

Astronomy

Aug. 04, 2015 Rise Set
Actual Time
Civil Twilight
Nautical Twilight
Astronomical Twilight
Moon
Length of Visible Light
Length of Day
Tomorrow will be .
, % of the Moon is Illuminated

Today's Extremes

State Highs State Lows

Community

WunderPhotos

Upload Photos

1,843,937 photos uploaded!

WunderBlogs® & News

Nearby

Air Quality

  Air Quality AQ Index Pollutant
Not available.

Snow Depth

Station Depth Elevation

Earthquake Activity

City Distance Mag. Time & Date
Minimum magnitude displayed is 2.5.

Coastal Water Temperatures

Place Temperature

Stations

Nearby Weather Stations

Station Location Temp. Windchill Dew Point Humidity Wind Precip. Elev Updated Type